Time;durP1;ratioP1;P1;durP2;ratioP2;P2;SDS_P1;SDS_P2;PMS_P1;PMS_P2;Temp;Humidity;BMP_temperature;BMP_pressure;BME280_temperature;BME280_humidity;BME280_pressure;Samples;Min_cycle;Max_cycle;Signal;HPM_P1;HPM_P2
2022/12/17 13:06:47;;;;;;;41.10;23.43;;;2.00;99.90;;;;;;5054705;28;20580;-52
2022/12/17 13:09:33;;;;;;;42.43;23.47;;;2.00;99.90;;;;;;5055227;28;20234;-51
2022/12/17 13:12:18;;;;;;;45.03;23.33;;;2.00;99.90;;;;;;5054754;28;20212;-50
2022/12/17 13:14:53;;;;;;;35.90;23.13;;;1.90;99.90;;;;;;5069932;28;20736;-51
2022/12/17 13:17:33;;;;;;;40.93;24.50;;;2.00;99.90;;;;;;5070003;28;20206;-52
2022/12/17 13:20:20;;;;;;;43.77;25.93;;;2.00;99.90;;;;;;5064932;28;20747;-52
2022/12/17 13:22:51;;;;;;;39.93;22.37;;;2.00;99.90;;;;;;5055728;28;20309;-51
2022/12/17 13:25:20;;;;;;;38.13;23.37;;;1.90;99.90;;;;;;5055124;28;20213;-52
2022/12/17 13:27:48;;;;;;;41.57;24.07;;;2.00;99.90;;;;;;5054997;28;20203;-52
2022/12/17 13:30:32;;;;;;;44.20;24.27;;;1.90;99.90;;;;;;5063712;28;20268;-52
2022/12/17 13:33:26;;;;;;;50.40;22.63;;;1.80;99.90;;;;;;5054779;28;20239;-51
2022/12/17 13:36:03;;;;;;;34.67;20.80;;;1.80;99.90;;;;;;5054961;28;20208;-52
2022/12/17 13:38:40;;;;;;;37.57;20.47;;;1.40;99.90;;;;;;5067637;28;20208;-50
2022/12/17 13:41:09;;;;;;;38.70;23.50;;;1.40;99.90;;;;;;5067715;28;20216;-52
2022/12/17 13:43:42;;;;;;;41.63;23.83;;;1.30;99.90;;;;;;5072975;28;20225;-52
2022/12/17 13:46:19;;;;;;;39.13;23.00;;;1.30;99.90;;;;;;5068183;28;20202;-52
2022/12/17 13:48:53;;;;;;;39.07;22.30;;;1.50;99.90;;;;;;5070328;28;20691;-52
2022/12/17 13:51:21;;;;;;;38.27;22.23;;;1.50;99.90;;;;;;5062490;28;20193;-51
2022/12/17 13:53:53;;;;;;;39.60;22.10;;;1.40;99.90;;;;;;5054240;28;20730;-51
2022/12/17 13:56:26;;;;;;;36.10;21.67;;;1.30;99.90;;;;;;5054433;28;20294;-52
2022/12/17 13:58:55;;;;;;;33.73;20.70;;;1.20;99.90;;;;;;5065479;28;20199;-51
2022/12/17 14:01:25;;;;;;;32.87;20.37;;;1.30;99.90;;;;;;5066162;28;20227;-55
2022/12/17 14:03:54;;;;;;;32.80;19.63;;;1.20;99.90;;;;;;5062190;28;20254;-50
2022/12/17 14:06:23;;;;;;;36.20;20.13;;;1.20;99.90;;;;;;5054385;28;20256;-51
2022/12/17 14:08:52;;;;;;;31.43;18.90;;;1.20;99.90;;;;;;5054280;28;20264;-51
2022/12/17 14:14:12;;;;;;;35.07;20.20;;;1.10;99.90;;;;;;5064800;28;20361;-52
2022/12/17 14:16:42;;;;;;;30.50;18.37;;;1.10;99.90;;;;;;5064644;28;20649;-52
2022/12/17 14:19:10;;;;;;;37.83;21.57;;;1.00;99.90;;;;;;5073957;28;20210;-51
2022/12/17 14:21:40;;;;;;;35.27;21.67;;;1.00;99.90;;;;;;5071717;28;20213;-51
2022/12/17 14:24:10;;;;;;;34.57;21.00;;;1.00;99.90;;;;;;5064880;28;20281;-51
2022/12/17 14:26:50;;;;;;;32.67;20.10;;;0.90;99.90;;;;;;5073620;28;20767;-51
2022/12/17 14:29:23;;;;;;;36.53;20.13;;;0.90;99.90;;;;;;5064154;28;20586;-52
2022/12/17 14:31:55;;;;;;;31.50;20.97;;;0.80;99.90;;;;;;5065172;28;20645;-51
2022/12/17 14:34:23;;;;;;;34.43;21.17;;;0.70;99.90;;;;;;5065310;28;20214;-51
2022/12/17 14:36:56;;;;;;;37.03;21.10;;;0.70;99.90;;;;;;5061743;28;20262;-51
2022/12/17 14:39:26;;;;;;;36.43;21.07;;;0.60;99.90;;;;;;5053700;28;20282;-52
2022/12/17 14:44:51;;;;;;;31.37;19.17;;;0.60;99.90;;;;;;5061561;28;20212;-51
2022/12/17 14:47:21;;;;;;;32.10;19.00;;;0.50;99.90;;;;;;5061326;28;20222;-51
2022/12/17 14:49:59;;;;;;;36.70;22.20;;;0.40;99.90;;;;;;5053599;28;20210;-51
2022/12/17 14:52:37;;;;;;;34.00;20.37;;;0.50;99.90;;;;;;5068834;28;20780;-51
2022/12/17 14:55:40;;;;;;;38.27;22.07;;;0.50;99.90;;;;;;5053258;28;20674;-50
2022/12/17 14:58:19;;;;;;;40.33;22.80;;;0.50;99.90;;;;;;5046645;28;20207;-51
2022/12/17 15:00:50;;;;;;;37.30;23.10;;;0.40;99.90;;;;;;5056777;28;20207;-51
2022/12/17 15:03:22;;;;;;;37.47;24.13;;;0.40;99.90;;;;;;5064403;28;20213;-51
2022/12/17 15:05:52;;;;;;;37.03;21.63;;;0.30;99.90;;;;;;5072946;28;20205;-50
2022/12/17 15:08:21;;;;;;;34.80;21.77;;;0.20;99.90;;;;;;5073079;28;20214;-51
2022/12/17 15:10:48;;;;;;;39.17;23.13;;;0.20;99.90;;;;;;5073192;28;20205;-51
2022/12/17 15:13:15;;;;;;;38.30;22.57;;;0.20;99.90;;;;;;5072601;28;20594;-51
2022/12/17 15:15:42;;;;;;;35.90;22.97;;;0.20;99.90;;;;;;5072815;28;20265;-51
2022/12/17 15:18:09;;;;;;;44.37;24.00;;;0.10;99.90;;;;;;5069637;28;20199;-51
2022/12/17 15:20:37;;;;;;;41.90;23.57;;;0.20;99.90;;;;;;5067717;28;20272;-51
2022/12/17 15:23:04;;;;;;;36.07;22.77;;;0.10;99.90;;;;;;5065221;28;20372;-49
2022/12/17 15:25:31;;;;;;;33.57;21.63;;;0.10;99.90;;;;;;5072323;28;20205;-50
2022/12/17 15:27:58;;;;;;;38.43;21.10;;;0.10;99.90;;;;;;5072214;28;20209;-52
2022/12/17 15:30:25;;;;;;;38.63;22.63;;;0.10;99.90;;;;;;5072613;28;20203;-51
2022/12/17 15:32:52;;;;;;;40.33;23.63;;;0.10;99.90;;;;;;5072084;28;20271;-52
2022/12/17 15:35:19;;;;;;;35.60;22.40;;;0.10;99.90;;;;;;5062639;28;20225;-51
2022/12/17 15:37:48;;;;;;;37.47;21.43;;;0.00;99.90;;;;;;5053615;28;20201;-51
2022/12/17 15:40:15;;;;;;;34.83;22.37;;;-0.10;99.90;;;;;;5052589;28;20202;-52
2022/12/17 15:45:26;;;;;;;39.90;22.70;;;-0.10;99.90;;;;;;5072289;28;20217;-51
2022/12/17 15:47:53;;;;;;;35.40;22.07;;;-0.20;99.90;;;;;;5071800;28;20687;-51
2022/12/17 15:50:20;;;;;;;35.60;21.57;;;-0.20;99.90;;;;;;5070396;28;20673;-51
2022/12/17 15:52:49;;;;;;;36.03;22.27;;;-0.30;99.90;;;;;;5063333;28;20283;-51
2022/12/17 15:55:16;;;;;;;40.17;24.27;;;-0.20;99.90;;;;;;5072106;28;20248;-50
2022/12/17 15:57:43;;;;;;;33.10;21.10;;;-0.20;99.90;;;;;;5071959;28;20620;-51
2022/12/17 16:00:11;;;;;;;41.50;23.07;;;-0.30;99.90;;;;;;5071756;28;20765;-50
2022/12/17 16:02:38;;;;;;;35.57;23.20;;;-0.30;99.90;;;;;;5071572;28;20226;-50
2022/12/17 16:05:06;;;;;;;41.67;24.83;;;-0.40;99.90;;;;;;5072048;28;20215;-50
2022/12/17 16:07:33;;;;;;;37.07;22.83;;;-0.40;99.90;;;;;;5062751;28;20272;-52
2022/12/17 16:10:02;;;;;;;42.40;23.87;;;-0.40;99.90;;;;;;5059471;28;20209;-51
2022/12/17 16:12:29;;;;;;;37.23;21.13;;;-0.50;99.90;;;;;;5051795;28;20219;-50
2022/12/17 16:14:56;;;;;;;35.50;23.40;;;-0.50;99.90;;;;;;5051919;28;20279;-51
2022/12/17 16:17:23;;;;;;;35.03;22.47;;;-0.50;99.90;;;;;;5054387;28;20286;-51
2022/12/17 16:19:51;;;;;;;40.10;24.07;;;-0.50;99.90;;;;;;5051788;28;20283;-51
2022/12/17 16:22:18;;;;;;;36.50;21.43;;;-0.50;99.90;;;;;;5051121;28;20656;-50
2022/12/17 16:24:45;;;;;;;41.83;24.20;;;-0.60;99.90;;;;;;5064898;28;20678;-51
2022/12/17 16:27:15;;;;;;;42.23;24.13;;;-0.70;99.90;;;;;;5062808;28;20194;-50
2022/12/17 16:29:42;;;;;;;36.63;22.70;;;-0.70;99.90;;;;;;5071582;28;20727;-51
2022/12/17 16:32:09;;;;;;;37.27;23.17;;;-0.70;99.90;;;;;;5071166;28;20743;-50
2022/12/17 16:34:36;;;;;;;36.80;24.13;;;-0.70;99.90;;;;;;5071612;28;20664;-51
2022/12/17 16:37:05;;;;;;;37.13;22.27;;;-0.70;99.90;;;;;;5071413;28;20624;-51
2022/12/17 16:39:33;;;;;;;41.30;23.73;;;-0.70;99.90;;;;;;5069705;28;20241;-50
2022/12/17 16:42:00;;;;;;;44.27;24.57;;;-0.80;99.90;;;;;;5059238;28;20314;-51
2022/12/17 16:44:28;;;;;;;44.53;25.17;;;-0.80;99.90;;;;;;5051448;28;20261;-50
2022/12/17 16:46:56;;;;;;;38.53;21.20;;;-0.80;99.90;;;;;;5051291;28;20205;-51
2022/12/17 16:49:24;;;;;;;46.67;25.50;;;-0.80;99.90;;;;;;5054546;28;20209;-51
2022/12/17 16:51:53;;;;;;;47.60;27.50;;;-0.80;99.90;;;;;;5071303;28;20200;-51
2022/12/17 16:54:23;;;;;;;44.77;25.43;;;-0.80;99.90;;;;;;5071479;28;20277;-50
2022/12/17 16:56:51;;;;;;;43.77;27.03;;;-0.80;99.90;;;;;;5067151;28;20619;-51
2022/12/17 16:59:18;;;;;;;50.53;30.13;;;-0.90;99.90;;;;;;5059581;28;20205;-51
2022/12/17 17:01:53;;;;;;;44.30;27.53;;;-0.80;99.90;;;;;;5050958;28;20214;-50
2022/12/17 17:04:21;;;;;;;46.53;27.47;;;-0.90;99.90;;;;;;5051274;28;20229;-50
2022/12/17 17:06:53;;;;;;;51.13;28.80;;;-0.90;99.90;;;;;;5050795;28;20202;-51
2022/12/17 17:09:20;;;;;;;55.50;30.33;;;-0.90;99.90;;;;;;5050858;28;20260;-51
2022/12/17 17:18:33;;;;;;;46.27;25.80;;;-1.10;99.90;;;;;;5054263;28;20668;-51
2022/12/17 17:21:14;;;;;;;48.77;29.07;;;-1.20;99.90;;;;;;5057438;28;20197;-52
2022/12/17 17:23:42;;;;;;;53.43;30.47;;;-1.20;99.90;;;;;;5069904;28;20246;-51
2022/12/17 17:26:10;;;;;;;99.27;50.50;;;-1.20;99.90;;;;;;5069554;28;20200;-52
2022/12/17 17:28:37;;;;;;;133.57;62.37;;;-1.30;99.90;;;;;;5062598;28;20194;-52
2022/12/17 17:31:06;;;;;;;142.40;64.77;;;-1.30;99.90;;;;;;5069293;28;20206;-51
2022/12/17 17:33:37;;;;;;;82.30;42.27;;;-1.30;99.90;;;;;;5066183;28;20223;-52
2022/12/17 17:36:05;;;;;;;69.17;37.33;;;-1.20;99.90;;;;;;5051101;28;20210;-51
2022/12/17 17:38:33;;;;;;;57.77;30.13;;;-1.20;99.90;;;;;;5051218;28;20213;-51
2022/12/17 17:41:00;;;;;;;56.97;31.47;;;-1.20;99.90;;;;;;5057529;28;20227;-51
2022/12/17 17:43:27;;;;;;;52.90;30.30;;;-1.20;99.90;;;;;;5061158;28;20234;-51
2022/12/17 17:45:58;;;;;;;57.50;31.97;;;-1.20;99.90;;;;;;5050926;28;20199;-51
2022/12/17 17:48:25;;;;;;;60.23;32.10;;;-1.10;99.90;;;;;;5067648;28;20246;-53
2022/12/17 17:51:01;;;;;;;93.27;46.60;;;-1.20;99.90;;;;;;5069872;28;20195;-50
2022/12/17 17:53:28;;;;;;;79.77;41.50;;;-1.10;99.90;;;;;;5065777;28;20213;-51
2022/12/17 17:55:55;;;;;;;89.37;44.60;;;-1.20;99.90;;;;;;5074352;28;20707;-51
2022/12/17 17:58:22;;;;;;;70.83;43.20;;;-1.20;99.90;;;;;;5074263;28;20632;-51
2022/12/17 18:00:49;;;;;;;69.57;40.00;;;-1.20;99.90;;;;;;5071894;28;20202;-51
2022/12/17 18:03:16;;;;;;;58.40;35.87;;;-1.30;99.90;;;;;;5065574;28;20255;-50
2022/12/17 18:05:43;;;;;;;55.13;34.30;;;-1.40;99.90;;;;;;5074161;28;20693;-52
2022/12/17 18:08:12;;;;;;;70.23;37.30;;;-1.40;99.90;;;;;;5074167;28;20203;-50
2022/12/17 18:10:39;;;;;;;65.67;37.77;;;-1.30;99.90;;;;;;5073184;28;20203;-50
2022/12/17 18:15:50;;;;;;;67.53;37.97;;;-1.40;99.90;;;;;;5060300;28;20207;-50
2022/12/17 18:18:17;;;;;;;66.27;35.33;;;-1.50;99.90;;;;;;5053920;28;20205;-50
2022/12/17 18:20:44;;;;;;;64.97;34.03;;;-1.60;99.90;;;;;;5055556;28;20207;-50
2022/12/17 18:23:12;;;;;;;57.40;33.80;;;-1.60;99.90;;;;;;5067725;28;20223;-50
2022/12/17 18:25:39;;;;;;;67.47;36.10;;;-1.70;99.90;;;;;;5071525;28;20202;-50
2022/12/17 18:28:06;;;;;;;60.77;32.60;;;-1.70;99.90;;;;;;5073913;28;20215;-51
2022/12/17 18:30:34;;;;;;;55.27;33.50;;;-1.70;99.90;;;;;;5072912;28;20699;-50
2022/12/17 18:33:01;;;;;;;63.53;34.73;;;-1.70;99.90;;;;;;5064543;28;20210;-51
2022/12/17 18:35:28;;;;;;;65.77;36.30;;;-1.70;99.90;;;;;;5060411;28;20217;-50
2022/12/17 18:37:55;;;;;;;62.70;36.63;;;-1.80;99.90;;;;;;5073607;28;20210;-51
2022/12/17 18:40:23;;;;;;;60.50;35.50;;;-1.80;99.90;;;;;;5073621;28;20302;-51
2022/12/17 18:45:37;;;;;;;66.23;37.07;;;-1.80;99.90;;;;;;5070579;28;20574;-51
2022/12/17 18:48:04;;;;;;;65.50;35.77;;;-1.90;99.90;;;;;;5072627;28;20574;-50
2022/12/17 18:50:31;;;;;;;66.03;35.90;;;-1.90;99.90;;;;;;5072934;28;20233;-52
2022/12/17 18:52:58;;;;;;;68.10;35.60;;;-1.90;99.90;;;;;;5068907;28;20218;-52
2022/12/17 18:55:26;;;;;;;69.57;34.30;;;-1.90;99.90;;;;;;5069169;28;20198;-51
2022/12/17 18:57:53;;;;;;;66.33;35.23;;;-1.90;99.90;;;;;;5073199;28;20205;-50
2022/12/17 19:00:21;;;;;;;75.27;36.80;;;-1.90;99.90;;;;;;5073327;28;20215;-51
2022/12/17 19:02:48;;;;;;;79.13;37.27;;;-1.90;99.90;;;;;;5068405;28;20634;-51
2022/12/17 19:05:15;;;;;;;65.63;37.40;;;-1.90;99.90;;;;;;5065060;28;20201;-50
2022/12/17 19:07:42;;;;;;;66.00;34.97;;;-1.90;99.90;;;;;;5069533;28;20845;-51
2022/12/17 19:10:10;;;;;;;66.00;35.20;;;-1.90;99.90;;;;;;5066638;28;20203;-50
2022/12/17 19:12:38;;;;;;;76.93;37.47;;;-1.90;99.90;;;;;;5070368;28;20223;-51
2022/12/17 19:15:06;;;;;;;73.83;37.00;;;-2.00;99.90;;;;;;5063531;28;20696;-50
2022/12/17 19:17:34;;;;;;;71.03;37.50;;;-2.00;99.90;;;;;;5069596;28;20281;-50
2022/12/17 19:20:04;;;;;;;71.43;36.30;;;-2.00;99.90;;;;;;5060215;28;20222;-51
2022/12/17 19:22:31;;;;;;;63.43;34.60;;;-1.90;99.90;;;;;;5082129;23;20232;-52
2022/12/17 19:24:58;;;;;;;54.13;32.47;;;-1.90;99.90;;;;;;5063386;28;20200;-52
2022/12/17 19:27:25;;;;;;;73.33;37.40;;;-1.90;99.90;;;;;;5070453;28;20205;-53
2022/12/17 19:29:55;;;;;;;84.03;42.33;;;-2.00;99.90;;;;;;5054826;28;20198;-52
2022/12/17 19:32:23;;;;;;;84.13;47.93;;;-2.00;99.90;;;;;;5071293;28;20578;-52
2022/12/17 19:34:50;;;;;;;92.13;45.70;;;-2.00;99.90;;;;;;5071303;28;20256;-52
2022/12/17 19:37:17;;;;;;;92.13;49.40;;;-2.00;99.90;;;;;;5070423;28;20211;-53
2022/12/17 19:39:44;;;;;;;81.23;47.97;;;-1.90;99.90;;;;;;5068041;28;20199;-52
2022/12/17 19:42:23;;;;;;;81.40;45.57;;;-1.90;99.90;;;;;;5065502;28;20308;-52
2022/12/17 19:44:50;;;;;;;77.80;42.67;;;-2.00;99.90;;;;;;5070277;28;20203;-52
2022/12/17 19:47:18;;;;;;;74.03;42.03;;;-2.00;99.90;;;;;;5064547;28;20654;-53
2022/12/17 19:49:45;;;;;;;72.13;40.63;;;-2.00;99.90;;;;;;5064995;28;20209;-52
2022/12/17 19:52:12;;;;;;;76.33;42.43;;;-2.00;99.90;;;;;;5068802;28;20223;-52
2022/12/17 19:54:39;;;;;;;71.27;39.17;;;-2.10;99.90;;;;;;5055192;28;20560;-52
2022/12/17 19:57:06;;;;;;;53.80;31.60;;;-2.10;99.90;;;;;;5061895;28;20211;-52
2022/12/17 19:59:33;;;;;;;56.20;29.53;;;-2.20;99.90;;;;;;5054067;28;20203;-53
2022/12/17 20:02:02;;;;;;;57.73;30.37;;;-2.20;99.90;;;;;;5063784;28;20217;-52
2022/12/17 20:04:30;;;;;;;49.97;29.30;;;-2.30;99.90;;;;;;5064050;28;20226;-52
2022/12/17 20:07:01;;;;;;;51.20;29.50;;;-2.30;99.90;;;;;;5058689;28;20234;-52
2022/12/17 20:09:28;;;;;;;41.63;25.50;;;-2.40;99.90;;;;;;5054501;28;20673;-52
2022/12/17 20:11:59;;;;;;;47.00;26.57;;;-2.40;99.90;;;;;;5065780;28;20219;-52
2022/12/17 20:14:27;;;;;;;46.17;25.90;;;-2.40;99.90;;;;;;5061288;28;20205;-52
2022/12/17 20:17:01;;;;;;;50.33;28.17;;;-2.50;99.90;;;;;;5065013;28;20201;-53
2022/12/17 20:19:31;;;;;;;44.27;26.77;;;-2.50;99.90;;;;;;5065832;28;20227;-53
2022/12/17 20:25:19;;;;;;;43.33;26.57;;;-2.60;99.90;;;;;;5055051;28;20185;-52
2022/12/17 20:27:47;;;;;;;54.00;30.43;;;-2.60;99.90;;;;;;5058411;28;20212;-52
2022/12/17 20:30:14;;;;;;;48.33;27.77;;;-2.60;99.90;;;;;;5062035;28;20284;-52
2022/12/17 20:32:41;;;;;;;46.87;27.10;;;-2.60;99.90;;;;;;5065796;28;20269;-52
2022/12/17 20:35:10;;;;;;;46.37;26.03;;;-2.70;99.90;;;;;;5064268;28;20198;-53
2022/12/17 20:37:37;;;;;;;56.37;28.60;;;-2.70;99.90;;;;;;5065277;28;20274;-52
2022/12/17 20:40:05;;;;;;;52.07;27.60;;;-2.70;99.90;;;;;;5054925;28;20199;-51
2022/12/17 20:42:32;;;;;;;45.83;24.57;;;-2.70;99.90;;;;;;5058846;28;20575;-51
2022/12/17 20:44:59;;;;;;;40.47;24.00;;;-2.70;99.90;;;;;;5057017;28;20644;-52
2022/12/17 20:47:26;;;;;;;40.57;23.53;;;-2.70;99.90;;;;;;5057524;28;20723;-51
2022/12/17 20:49:53;;;;;;;43.70;25.33;;;-2.70;99.90;;;;;;5070243;28;20559;-51
2022/12/17 20:52:22;;;;;;;46.33;24.90;;;-2.70;99.90;;;;;;5061409;28;20232;-51
2022/12/17 20:54:49;;;;;;;44.17;24.23;;;-2.70;99.90;;;;;;5062950;28;20202;-53
2022/12/17 20:57:16;;;;;;;44.20;25.37;;;-2.70;99.90;;;;;;5062679;28;20208;-51
2022/12/17 20:59:43;;;;;;;50.60;25.67;;;-2.70;99.90;;;;;;5060691;28;20276;-53
2022/12/17 21:02:10;;;;;;;46.70;24.63;;;-2.70;99.90;;;;;;5069920;28;20552;-52
2022/12/17 21:04:37;;;;;;;41.87;26.33;;;-2.70;99.90;;;;;;5057179;28;20249;-52
2022/12/17 21:07:04;;;;;;;44.30;24.83;;;-2.70;99.90;;;;;;5069077;28;20205;-51
2022/12/17 21:09:33;;;;;;;39.03;23.73;;;-2.70;99.90;;;;;;5061709;28;20207;-53
2022/12/17 21:12:00;;;;;;;51.30;29.37;;;-2.80;99.90;;;;;;5070126;28;20222;-52
2022/12/17 21:14:27;;;;;;;46.43;27.20;;;-2.70;99.90;;;;;;5057996;28;20234;-52
2022/12/17 21:16:54;;;;;;;50.63;29.13;;;-2.80;99.90;;;;;;5068373;28;20286;-52
2022/12/17 21:19:21;;;;;;;56.87;30.13;;;-2.80;99.90;;;;;;5062785;28;20651;-53
2022/12/17 21:21:51;;;;;;;58.10;33.17;;;-2.70;99.90;;;;;;5068395;28;20237;-52
2022/12/17 21:24:18;;;;;;;56.67;29.87;;;-2.80;99.90;;;;;;5069753;28;20226;-52
2022/12/17 21:26:47;;;;;;;49.20;28.90;;;-2.70;99.90;;;;;;5071616;28;20202;-51
2022/12/17 21:29:14;;;;;;;57.97;31.10;;;-2.80;99.90;;;;;;5067108;28;20203;-52
2022/12/17 21:31:44;;;;;;;59.40;31.30;;;-2.80;99.90;;;;;;5071606;28;20244;-53
2022/12/17 21:34:13;;;;;;;57.93;31.07;;;-2.80;99.90;;;;;;5073601;28;20205;-52
2022/12/17 21:36:41;;;;;;;51.83;29.03;;;-2.80;99.90;;;;;;5073797;28;20619;-52
2022/12/17 21:39:10;;;;;;;59.77;31.30;;;-2.80;99.90;;;;;;5063303;28;20215;-51
2022/12/17 21:41:39;;;;;;;55.30;30.83;;;-2.80;99.90;;;;;;5070730;28;20219;-50
2022/12/17 21:44:10;;;;;;;50.40;27.87;;;-2.80;99.90;;;;;;5073074;28;20223;-54
2022/12/17 21:46:37;;;;;;;54.53;28.77;;;-2.80;99.90;;;;;;5073358;28;20264;-52
2022/12/17 21:49:04;;;;;;;61.73;30.27;;;-2.80;99.90;;;;;;5070946;28;20217;-52
2022/12/17 21:51:32;;;;;;;55.13;29.80;;;-2.80;99.90;;;;;;5061620;28;20437;-52
2022/12/17 21:54:01;;;;;;;49.93;27.37;;;-2.80;99.90;;;;;;5053228;28;20633;-51
2022/12/17 21:56:29;;;;;;;48.77;26.90;;;-2.90;99.90;;;;;;5067344;28;20757;-51
2022/12/17 21:58:58;;;;;;;46.73;26.57;;;-2.90;99.90;;;;;;5069442;28;20235;-52
2022/12/17 22:01:28;;;;;;;49.40;28.07;;;-2.80;99.90;;;;;;5068645;28;20227;-52
2022/12/17 22:03:58;;;;;;;47.17;25.37;;;-2.40;99.90;;;;;;5072973;28;20220;-52
2022/12/17 22:06:26;;;;;;;44.80;25.43;;;-2.70;99.90;;;;;;5073009;28;20199;-53
2022/12/17 22:08:53;;;;;;;51.80;26.83;;;-2.70;99.90;;;;;;5065901;28;20201;-51
2022/12/17 22:11:23;;;;;;;44.97;25.47;;;-2.70;99.90;;;;;;5066444;28;20296;-52
2022/12/17 22:14:02;;;;;;;44.70;24.30;;;-2.80;99.90;;;;;;5070147;28;20198;-52
2022/12/17 22:16:32;;;;;;;46.20;25.00;;;-2.80;99.90;;;;;;5064956;28;20217;-51
2022/12/17 22:19:01;;;;;;;44.37;23.77;;;-2.80;99.90;;;;;;5065759;28;20255;-52
2022/12/17 22:21:28;;;;;;;50.00;24.23;;;-2.90;99.90;;;;;;5063858;28;20235;-52
2022/12/17 22:23:55;;;;;;;44.87;24.67;;;-2.90;99.90;;;;;;5070587;28;20233;-52
2022/12/17 22:26:22;;;;;;;42.57;23.93;;;-2.90;99.90;;;;;;5064292;28;20266;-52
2022/12/17 22:28:49;;;;;;;44.30;23.60;;;-2.90;99.90;;;;;;5063221;28;20268;-52
2022/12/17 22:34:04;;;;;;;48.10;24.27;;;-2.90;99.90;;;;;;5070202;28;20197;-51
2022/12/17 22:36:31;;;;;;;48.33;23.33;;;-2.90;99.90;;;;;;5072388;28;20202;-53
2022/12/17 22:38:59;;;;;;;43.07;21.33;;;-2.90;99.90;;;;;;5051536;28;20210;-53
2022/12/17 22:44:11;;;;;;;46.20;23.70;;;-2.80;99.90;;;;;;5058416;28;20631;-53
2022/12/17 22:46:38;;;;;;;49.97;24.70;;;-2.90;99.90;;;;;;5061033;28;20253;-51
2022/12/17 22:49:06;;;;;;;53.87;27.10;;;-2.90;99.90;;;;;;5064643;28;21036;-50
2022/12/17 22:51:33;;;;;;;51.80;25.43;;;-2.90;99.90;;;;;;5073002;28;20589;-53
2022/12/17 22:54:01;;;;;;;50.47;26.47;;;-3.00;99.90;;;;;;5071485;28;20208;-51
2022/12/17 22:56:28;;;;;;;49.30;26.30;;;-3.00;99.90;;;;;;5055137;28;20294;-51
2022/12/17 22:58:55;;;;;;;48.73;24.70;;;-3.00;99.90;;;;;;5071857;28;20683;-52
2022/12/17 23:01:23;;;;;;;52.43;26.50;;;-3.00;99.90;;;;;;5071795;28;20531;-52
2022/12/17 23:03:50;;;;;;;47.80;24.03;;;-3.00;99.90;;;;;;5071033;28;20227;-52
2022/12/17 23:06:18;;;;;;;46.93;24.20;;;-3.00;99.90;;;;;;5055941;28;20207;-51
2022/12/17 23:08:45;;;;;;;50.83;25.30;;;-3.00;99.90;;;;;;5070641;28;20202;-52
2022/12/17 23:11:15;;;;;;;53.87;25.23;;;-3.00;99.90;;;;;;5071999;28;20314;-51
2022/12/17 23:13:42;;;;;;;47.97;24.03;;;-3.00;99.90;;;;;;5071685;28;20610;-51
2022/12/17 23:16:12;;;;;;;45.33;22.80;;;-3.10;99.90;;;;;;5067390;28;20979;-51
2022/12/17 23:18:39;;;;;;;44.13;23.23;;;-3.20;99.90;;;;;;5070797;28;20556;-51
2022/12/17 23:21:07;;;;;;;48.47;23.53;;;-3.10;99.90;;;;;;5051800;28;20242;-52
2022/12/17 23:23:36;;;;;;;45.60;23.53;;;-3.20;99.90;;;;;;5051839;28;20222;-51
2022/12/17 23:26:08;;;;;;;47.40;24.13;;;-3.20;99.90;;;;;;5058519;28;20491;-51
2022/12/17 23:28:35;;;;;;;46.43;23.73;;;-3.20;99.90;;;;;;5056660;28;20291;-51
2022/12/17 23:31:07;;;;;;;43.67;21.53;;;-3.30;99.90;;;;;;5067203;28;20475;-52
2022/12/17 23:33:34;;;;;;;42.73;22.17;;;-3.30;99.90;;;;;;5051195;28;20674;-52
2022/12/17 23:36:06;;;;;;;45.77;23.47;;;-3.30;99.90;;;;;;5060338;28;20285;-51
2022/12/17 23:38:33;;;;;;;46.63;24.37;;;-3.30;99.90;;;;;;5068072;28;20253;-51
2022/12/17 23:41:07;;;;;;;45.27;23.60;;;-3.30;99.90;;;;;;5070594;28;20219;-52
2022/12/17 23:43:34;;;;;;;48.33;24.70;;;-3.30;99.90;;;;;;5070374;28;20218;-52
2022/12/17 23:46:02;;;;;;;45.07;22.23;;;-3.40;99.90;;;;;;5060871;28;20688;-51
2022/12/17 23:48:30;;;;;;;47.23;24.97;;;-3.40;99.90;;;;;;5070107;28;20205;-51
2022/12/17 23:50:57;;;;;;;54.53;24.57;;;-3.40;99.90;;;;;;5073734;28;20232;-50
2022/12/17 23:53:25;;;;;;;44.13;22.73;;;-3.40;99.90;;;;;;5070635;28;20255;-52
2022/12/17 23:55:52;;;;;;;45.37;24.23;;;-3.40;99.90;;;;;;5052561;28;20642;-52
2022/12/17 23:58:21;;;;;;;43.83;23.53;;;-3.40;99.90;;;;;;5065633;28;20203;-52
